createdAt,value
2018-07-11T00:01:39.387Z,3.85
2018-07-11T00:04:07.734Z,3.80
2018-07-11T00:06:36.077Z,4.12
2018-07-11T00:09:04.841Z,3.80
2018-07-11T00:11:33.272Z,3.70
2018-07-11T00:14:01.617Z,4.37
2018-07-11T00:16:30.021Z,4.20
2018-07-11T00:18:58.387Z,4.00
2018-07-11T00:21:26.745Z,4.00
2018-07-11T00:23:55.066Z,3.90
2018-07-11T00:26:23.969Z,4.58
2018-07-11T00:28:52.376Z,4.65
2018-07-11T00:31:20.732Z,4.58
2018-07-11T00:33:49.199Z,4.60
2018-07-11T00:36:17.537Z,4.70
2018-07-11T00:38:47.012Z,5.10
2018-07-11T00:41:15.387Z,4.80
2018-07-11T00:43:43.749Z,4.80
2018-07-11T00:46:12.428Z,4.92
2018-07-11T00:48:40.780Z,4.80
2018-07-11T00:51:09.113Z,4.90
2018-07-11T00:53:37.948Z,5.17
2018-07-11T00:56:06.307Z,5.20
2018-07-11T00:58:38.587Z,5.20
2018-07-11T01:01:16.917Z,5.12
2018-07-11T01:03:54.561Z,5.60
2018-07-11T01:06:22.948Z,5.72
2018-07-11T01:08:59.312Z,5.67
2018-07-11T01:11:32.489Z,5.50
2018-07-11T01:14:00.885Z,6.37
2018-07-11T01:16:29.922Z,6.20
2018-07-11T01:19:02.335Z,6.00
2018-07-11T01:21:31.432Z,6.28
2018-07-11T01:23:59.773Z,5.50
2018-07-11T01:26:29.504Z,6.58
2018-07-11T01:28:57.917Z,6.30
2018-07-11T01:31:26.600Z,6.50
2018-07-11T01:33:55.599Z,6.50
2018-07-11T01:36:24.266Z,6.67
2018-07-11T01:38:52.716Z,7.03
2018-07-11T01:41:21.098Z,6.20
2018-07-11T01:43:49.576Z,6.60
2018-07-11T01:46:27.528Z,7.08
2018-07-11T01:48:55.944Z,7.60
2018-07-11T01:51:34.396Z,7.05
2018-07-11T01:54:02.759Z,7.70
2018-07-11T01:56:31.122Z,7.90
2018-07-11T01:58:59.472Z,7.30
2018-07-11T02:01:27.854Z,7.65
2018-07-11T02:03:56.231Z,7.65
2018-07-11T02:06:24.609Z,8.60
2018-07-11T02:08:53.003Z,9.15
2018-07-11T02:11:21.381Z,9.80
2018-07-11T02:13:49.989Z,9.65
2018-07-11T02:16:18.377Z,9.13
2018-07-11T02:18:46.734Z,8.30
2018-07-11T02:21:15.145Z,8.73
2018-07-11T02:23:43.554Z,8.60
2018-07-11T02:26:11.933Z,8.28
2018-07-11T02:28:40.311Z,8.30
2018-07-11T02:31:08.676Z,8.78
2018-07-11T02:33:37.056Z,8.60
2018-07-11T02:36:05.428Z,8.80
2018-07-11T02:38:33.796Z,8.60
2018-07-11T02:41:02.209Z,8.60
2018-07-11T02:43:30.558Z,8.90
2018-07-11T02:45:59.004Z,9.10
2018-07-11T02:48:27.375Z,8.97
2018-07-11T02:50:55.728Z,9.03
2018-07-11T02:53:24.900Z,9.45
2018-07-11T02:55:53.857Z,9.53
2018-07-11T02:58:22.213Z,9.20
2018-07-11T03:00:51.047Z,9.60
2018-07-11T03:03:19.442Z,9.33
2018-07-11T03:05:48.094Z,9.33
2018-07-11T03:08:17.456Z,9.40
2018-07-11T03:10:46.106Z,10.13
2018-07-11T03:13:14.670Z,9.57
2018-07-11T03:15:43.046Z,9.60
2018-07-11T03:18:11.499Z,9.58
2018-07-11T03:20:39.901Z,9.10
2018-07-11T03:23:08.359Z,9.37
2018-07-11T03:25:36.732Z,10.18
2018-07-11T03:28:05.110Z,9.35
2018-07-11T03:30:33.497Z,10.00
2018-07-11T03:33:01.989Z,9.00
2018-07-11T03:35:30.963Z,10.93
2018-07-11T03:37:59.321Z,9.83
2018-07-11T03:40:27.688Z,9.97
2018-07-11T03:42:56.025Z,9.98
2018-07-11T03:45:24.495Z,9.45
2018-07-11T03:47:52.936Z,10.40
2018-07-11T03:50:21.379Z,10.00
2018-07-11T03:52:49.784Z,9.63
2018-07-11T03:55:18.172Z,10.43
2018-07-11T03:57:46.532Z,9.90
2018-07-11T04:00:14.894Z,9.80
2018-07-11T04:02:43.237Z,10.20
2018-07-11T04:05:11.594Z,10.70
2018-07-11T04:07:39.926Z,10.00
2018-07-11T04:10:08.270Z,10.08
2018-07-11T04:12:36.654Z,10.30
2018-07-11T04:15:05.007Z,10.20
2018-07-11T04:17:33.332Z,10.20
2018-07-11T04:20:01.662Z,9.57
2018-07-11T04:22:30.033Z,9.60
2018-07-11T04:24:58.437Z,8.38
2018-07-11T04:27:26.822Z,8.68
2018-07-11T04:29:55.208Z,8.03
2018-07-11T04:32:23.617Z,7.70
2018-07-11T04:34:52.061Z,7.80
2018-07-11T04:37:20.394Z,7.57
2018-07-11T04:39:49.240Z,7.60
2018-07-11T04:42:17.610Z,7.83
2018-07-11T04:44:45.954Z,7.58
2018-07-11T04:47:14.310Z,7.70
2018-07-11T04:49:45.702Z,7.47
2018-07-11T04:52:14.102Z,7.90
2018-07-11T04:54:42.460Z,6.95
2018-07-11T04:57:10.845Z,7.42
2018-07-11T04:59:39.216Z,7.17
2018-07-11T05:02:07.770Z,7.78
2018-07-11T05:04:36.118Z,7.95
2018-07-11T05:07:04.482Z,7.80
2018-07-11T05:09:32.820Z,8.30
2018-07-11T05:12:01.171Z,7.55
2018-07-11T05:14:29.515Z,8.10
2018-07-11T05:16:57.848Z,7.65
2018-07-11T05:19:26.196Z,7.60
2018-07-11T05:21:54.535Z,7.40
2018-07-11T05:24:23.037Z,7.10
2018-07-11T05:26:51.519Z,8.10
2018-07-11T05:29:19.873Z,7.55
2018-07-11T05:31:48.244Z,7.85
2018-07-11T05:34:16.605Z,7.40
2018-07-11T05:36:44.982Z,7.75
2018-07-11T05:39:13.353Z,6.85
2018-07-11T05:41:41.676Z,8.03
2018-07-11T05:44:10.007Z,8.10
2018-07-11T05:46:38.381Z,7.30
2018-07-11T05:49:06.835Z,7.65
2018-07-11T05:51:35.217Z,7.80
2018-07-11T05:54:03.594Z,6.72
2018-07-11T05:56:31.966Z,7.33
2018-07-11T05:59:00.345Z,7.80
2018-07-11T06:01:28.721Z,7.60
2018-07-11T06:03:57.087Z,6.80
2018-07-11T06:06:25.662Z,7.10
2018-07-11T06:08:54.013Z,7.55
2018-07-11T06:11:23.464Z,7.20
2018-07-11T06:13:52.980Z,7.60
2018-07-11T06:16:21.601Z,7.67
2018-07-11T06:18:50.270Z,7.60
2018-07-11T06:21:18.924Z,7.90
2018-07-11T06:23:47.278Z,6.80
2018-07-11T06:26:15.652Z,8.10
2018-07-11T06:28:43.981Z,7.20
2018-07-11T06:31:12.326Z,7.45
2018-07-11T06:33:40.694Z,7.87
2018-07-11T06:36:09.216Z,7.47
2018-07-11T06:38:38.208Z,7.03
2018-07-11T06:41:06.620Z,6.97
2018-07-11T06:43:34.980Z,6.62
2018-07-11T06:46:03.357Z,6.67
2018-07-11T06:48:31.714Z,7.67
2018-07-11T06:51:00.186Z,6.35
2018-07-11T06:53:28.599Z,7.60
2018-07-11T06:55:57.018Z,6.80
2018-07-11T06:58:25.401Z,6.28
2018-07-11T07:00:53.762Z,6.15
2018-07-11T07:03:22.112Z,6.35
2018-07-11T07:05:50.633Z,6.30
2018-07-11T07:08:18.971Z,6.80
2018-07-11T07:10:47.331Z,6.30
2018-07-11T07:13:15.712Z,6.45
2018-07-11T07:15:44.236Z,6.42
2018-07-11T07:18:12.662Z,6.00
2018-07-11T07:20:41.000Z,5.95
2018-07-11T07:23:09.580Z,5.80
2018-07-11T07:25:38.779Z,5.50
2018-07-11T07:28:07.140Z,5.95
2018-07-11T07:30:35.564Z,6.20
2018-07-11T07:33:03.917Z,6.22
2018-07-11T07:35:32.301Z,6.10
2018-07-11T07:38:00.649Z,5.62
2018-07-11T07:40:29.021Z,5.47
2018-07-11T07:42:57.412Z,5.62
2018-07-11T07:45:26.325Z,5.97
2018-07-11T07:47:54.715Z,5.75
2018-07-11T07:50:23.117Z,5.67
2018-07-11T07:52:51.920Z,5.10
2018-07-11T07:55:20.374Z,6.05
2018-07-11T07:57:48.772Z,5.93
2018-07-11T08:00:17.138Z,6.07
2018-07-11T08:02:45.499Z,5.60
2018-07-11T08:05:13.819Z,5.10
2018-07-11T08:07:42.191Z,5.20
2018-07-11T08:10:10.544Z,4.80
2018-07-11T08:12:39.193Z,4.67
2018-07-11T08:15:08.258Z,4.47
2018-07-11T08:17:36.939Z,4.70
2018-07-11T08:20:05.415Z,4.12
2018-07-11T08:23:44.995Z,4.30
2018-07-11T08:26:25.307Z,4.35
2018-07-11T08:29:33.687Z,4.70
2018-07-11T08:32:28.097Z,4.80
2018-07-11T08:36:09.757Z,4.93
2018-07-11T08:38:51.994Z,5.45
2018-07-11T08:42:02.647Z,5.87
2018-07-11T08:44:43.849Z,5.30
2018-07-11T08:47:37.688Z,5.60
2018-07-11T08:50:16.078Z,5.55
2018-07-11T08:55:01.888Z,5.40
2018-07-11T08:57:40.116Z,5.95
2018-07-11T09:00:19.957Z,6.10
2018-07-11T09:05:08.372Z,6.10
2018-07-11T09:07:46.937Z,6.30
2018-07-11T09:13:04.832Z,7.33
2018-07-11T09:15:41.129Z,5.92
2018-07-11T09:20:21.969Z,6.28
2018-07-11T09:25:04.739Z,6.33
2018-07-11T09:27:33.253Z,6.03
2018-07-11T09:30:01.743Z,6.15
2018-07-11T09:32:30.143Z,5.30
2018-07-11T09:34:58.451Z,4.90
2018-07-11T09:37:26.827Z,5.60
2018-07-11T09:39:55.171Z,5.55
2018-07-11T09:42:23.532Z,5.35
2018-07-11T09:44:51.857Z,5.15
2018-07-11T09:47:25.425Z,5.05
2018-07-11T09:49:53.793Z,5.10
2018-07-11T09:52:22.316Z,5.12
2018-07-11T09:54:50.742Z,4.80
2018-07-11T09:57:19.458Z,5.00
2018-07-11T09:59:47.807Z,4.20
2018-07-11T10:02:16.186Z,4.00
2018-07-11T10:04:44.557Z,4.37
2018-07-11T10:07:13.486Z,4.87
2018-07-11T10:09:42.048Z,4.05
2018-07-11T10:12:10.413Z,4.00
2018-07-11T10:14:38.752Z,3.60
2018-07-11T10:17:07.113Z,3.00
2018-07-11T10:19:35.484Z,3.10
2018-07-11T10:22:03.805Z,2.83
2018-07-11T10:24:32.182Z,3.00
2018-07-11T10:27:00.659Z,3.10
2018-07-11T10:29:29.188Z,2.92
2018-07-11T10:31:57.542Z,3.58
2018-07-11T10:34:25.887Z,3.40
2018-07-11T10:36:54.195Z,3.50
2018-07-11T10:39:22.593Z,3.17
2018-07-11T10:41:51.010Z,3.80
2018-07-11T10:44:19.325Z,3.25
2018-07-11T10:47:18.550Z,3.27
2018-07-11T10:49:46.914Z,3.15
2018-07-11T10:52:15.431Z,3.00
2018-07-11T10:54:43.824Z,3.30
2018-07-11T10:57:12.179Z,3.33
2018-07-11T10:59:40.564Z,3.70
2018-07-11T11:02:09.023Z,3.00
2018-07-11T11:04:37.384Z,3.37
2018-07-11T11:07:05.767Z,3.22
2018-07-11T11:09:34.139Z,3.60
2018-07-11T11:12:02.574Z,3.87
2018-07-11T11:14:30.931Z,3.60
2018-07-11T11:16:59.756Z,3.40
2018-07-11T11:19:28.170Z,8.50
2018-07-11T11:21:56.574Z,8.00
2018-07-11T11:24:24.968Z,4.50
2018-07-11T11:26:53.323Z,5.53
2018-07-11T11:29:21.705Z,5.13
2018-07-11T11:31:50.115Z,4.47
2018-07-11T11:34:18.490Z,3.50
2018-07-11T11:36:46.840Z,3.70
2018-07-11T11:39:15.254Z,3.90
2018-07-11T11:41:43.748Z,4.13
2018-07-11T11:44:11.984Z,3.50
2018-07-11T11:46:40.397Z,3.93
2018-07-11T11:49:09.043Z,4.20
2018-07-11T11:51:37.398Z,4.60
2018-07-11T11:54:05.740Z,4.30
2018-07-11T11:56:34.170Z,3.40
2018-07-11T11:59:02.543Z,3.70
2018-07-11T12:01:30.939Z,4.85
2018-07-11T12:03:59.303Z,3.77
2018-07-11T12:06:27.746Z,4.80
2018-07-11T12:08:56.132Z,4.92
2018-07-11T12:11:24.558Z,5.00
2018-07-11T12:13:52.938Z,5.42
2018-07-11T12:16:21.310Z,5.40
2018-07-11T12:18:49.686Z,7.33
2018-07-11T12:21:18.095Z,6.20
2018-07-11T12:23:46.723Z,6.85
2018-07-11T12:26:16.239Z,8.53
2018-07-11T12:28:44.634Z,9.58
2018-07-11T12:31:13.017Z,10.63
2018-07-11T12:33:41.395Z,11.50
2018-07-11T12:36:09.785Z,12.30
2018-07-11T12:38:38.272Z,12.43
2018-07-11T12:41:06.849Z,13.88
2018-07-11T12:43:35.276Z,14.07
2018-07-11T12:46:03.616Z,14.63
2018-07-11T12:48:37.272Z,14.20
2018-07-11T12:51:05.644Z,15.20
2018-07-11T12:53:34.032Z,14.30
2018-07-11T12:56:02.429Z,15.95
2018-07-11T12:58:30.929Z,15.72
2018-07-11T13:00:59.388Z,15.10
2018-07-11T13:03:27.939Z,15.65
2018-07-11T13:05:56.323Z,15.05
2018-07-11T13:08:24.759Z,15.03
2018-07-11T13:10:53.194Z,14.20
2018-07-11T13:13:21.674Z,14.50
2018-07-11T13:15:50.208Z,14.40
2018-07-11T13:18:18.674Z,14.00
2018-07-11T13:20:47.008Z,14.65
2018-07-11T13:23:15.357Z,15.70
2018-07-11T13:25:43.820Z,16.75
2018-07-11T13:28:12.168Z,16.35
2018-07-11T13:30:40.652Z,16.52
2018-07-11T13:33:08.979Z,15.85
2018-07-11T13:35:37.361Z,15.80
2018-07-11T13:38:05.799Z,15.40
2018-07-11T13:40:34.226Z,15.53
2018-07-11T13:43:02.596Z,15.40
2018-07-11T13:45:30.987Z,14.73
2018-07-11T13:48:01.280Z,15.65
2018-07-11T13:50:29.867Z,16.67
2018-07-11T13:52:58.834Z,16.52
2018-07-11T13:55:27.353Z,16.55
2018-07-11T13:57:57.149Z,15.40
2018-07-11T14:00:25.580Z,15.10
2018-07-11T14:02:54.069Z,14.87
2018-07-11T14:05:28.845Z,14.80
2018-07-11T14:07:57.224Z,15.90
2018-07-11T14:10:25.581Z,16.02
2018-07-11T14:12:53.975Z,14.70
2018-07-11T14:15:22.341Z,15.90
2018-07-11T14:17:50.717Z,16.27
2018-07-11T14:20:19.104Z,16.93
2018-07-11T14:22:48.283Z,17.40
2018-07-11T14:25:17.475Z,16.50
2018-07-11T14:27:49.142Z,15.93
2018-07-11T14:30:17.705Z,15.60
2018-07-11T14:32:50.668Z,17.23
2018-07-11T14:35:19.111Z,16.20
2018-07-11T14:37:48.792Z,15.80
2018-07-11T14:40:17.155Z,16.60
2018-07-11T14:42:45.976Z,25.60
2018-07-11T14:45:14.830Z,16.20
2018-07-11T14:47:48.379Z,16.40
2018-07-11T14:50:17.138Z,16.42
2018-07-11T14:52:46.245Z,15.55
2018-07-11T14:55:14.593Z,14.10
2018-07-11T14:57:42.976Z,14.58
2018-07-11T15:00:11.411Z,12.70
2018-07-11T15:02:39.872Z,13.10
2018-07-11T15:05:08.245Z,13.20
2018-07-11T15:07:36.661Z,13.65
2018-07-11T15:10:05.096Z,13.10
2018-07-11T15:12:33.529Z,12.63
2018-07-11T15:15:01.937Z,15.88
2018-07-11T15:17:36.921Z,14.33
2018-07-11T15:20:05.622Z,14.20
2018-07-11T15:22:34.036Z,14.00
2018-07-11T15:25:02.433Z,14.95
2018-07-11T15:27:31.037Z,13.30
2018-07-11T15:29:59.408Z,14.15
2018-07-11T15:32:27.926Z,12.95
2018-07-11T15:34:56.491Z,12.37
2018-07-11T15:37:25.509Z,13.75
2018-07-11T15:39:54.365Z,14.25
2018-07-11T15:42:22.924Z,14.47
2018-07-11T15:44:52.040Z,14.03
2018-07-11T15:47:22.281Z,15.40
2018-07-11T15:49:52.565Z,15.63
2018-07-11T15:52:22.564Z,14.70
2018-07-11T15:54:51.213Z,15.48
2018-07-11T15:57:25.809Z,14.40
2018-07-11T16:00:01.465Z,14.20
2018-07-11T16:02:30.704Z,14.58
2018-07-11T16:04:59.170Z,14.95
2018-07-11T16:07:29.415Z,13.45
2018-07-11T16:09:59.102Z,13.70
2018-07-11T16:12:27.497Z,13.00
2018-07-11T16:14:56.524Z,12.50
2018-07-11T16:17:24.879Z,12.98
2018-07-11T16:19:53.293Z,12.98
2018-07-11T16:22:22.091Z,12.50
2018-07-11T16:24:50.566Z,11.63
2018-07-11T16:27:19.532Z,12.37
2018-07-11T16:29:47.906Z,11.90
2018-07-11T16:32:16.248Z,12.00
2018-07-11T16:34:45.024Z,12.50
2018-07-11T16:37:13.380Z,12.40
2018-07-11T16:39:41.792Z,12.40
2018-07-11T16:42:10.121Z,11.83
2018-07-11T16:44:38.568Z,12.03
2018-07-11T16:47:07.829Z,12.55
2018-07-11T16:49:40.259Z,11.83
2018-07-11T16:52:08.631Z,11.45
2018-07-11T16:54:36.985Z,12.47
2018-07-11T16:57:06.446Z,11.80
2018-07-11T16:59:44.250Z,12.00
2018-07-11T17:02:16.716Z,12.28
2018-07-11T17:04:45.053Z,11.50
2018-07-11T17:07:16.487Z,12.30
2018-07-11T17:09:46.280Z,11.75
2018-07-11T17:12:15.177Z,12.30
2018-07-11T17:14:46.178Z,12.05
2018-07-11T17:17:16.780Z,11.73
2018-07-11T17:20:04.853Z,12.45
2018-07-11T17:22:40.868Z,12.00
2018-07-11T17:25:10.833Z,13.55
2018-07-11T17:27:39.697Z,13.60
2018-07-11T17:30:08.034Z,13.03
2018-07-11T17:32:36.424Z,13.97
2018-07-11T17:35:04.798Z,11.50
2018-07-11T17:37:35.573Z,12.85
2018-07-11T17:40:10.829Z,12.68
2018-07-11T17:42:42.602Z,11.15
2018-07-11T17:45:13.780Z,11.00
2018-07-11T17:49:52.289Z,11.12
2018-07-11T17:52:20.640Z,10.65
2018-07-11T17:55:11.037Z,11.65
2018-07-11T17:57:49.192Z,11.30
2018-07-11T18:00:36.592Z,10.40
2018-07-11T18:03:10.714Z,9.70
2018-07-11T18:05:50.493Z,10.30
2018-07-11T18:08:18.892Z,9.70
2018-07-11T18:10:49.229Z,10.37
2018-07-11T18:13:26.355Z,10.80
2018-07-11T18:16:59.814Z,9.93
2018-07-11T18:20:38.340Z,10.40
2018-07-11T18:24:17.493Z,11.00
2018-07-11T18:27:14.628Z,13.10
2018-07-11T18:31:26.386Z,12.58
2018-07-11T18:34:06.109Z,14.93
2018-07-11T18:36:45.424Z,14.20
2018-07-11T18:39:37.170Z,13.67
2018-07-11T18:42:45.949Z,14.53
2018-07-11T18:47:33.481Z,13.80
2018-07-11T18:50:14.969Z,15.05
2018-07-11T18:52:51.773Z,14.17
2018-07-11T18:55:28.163Z,13.08
2018-07-11T18:58:08.458Z,16.05
2018-07-11T19:00:54.906Z,21.15
2018-07-11T19:03:31.134Z,15.83
2018-07-11T19:06:09.648Z,15.60
2018-07-11T19:08:56.277Z,20.25
2018-07-11T19:11:28.680Z,17.57
2018-07-11T19:14:06.366Z,18.25
2018-07-11T19:19:21.065Z,14.50
2018-07-11T19:21:56.967Z,16.50
2018-07-11T19:24:39.009Z,16.07
2018-07-11T19:27:16.524Z,14.40
2018-07-11T19:29:58.277Z,14.33
2018-07-11T19:33:45.627Z,15.55
2018-07-11T19:37:24.815Z,15.08
2018-07-11T19:41:01.133Z,14.53
2018-07-11T19:43:42.964Z,17.23
2018-07-11T19:48:38.865Z,17.23
2018-07-11T19:51:15.372Z,15.30
2018-07-11T19:56:00.045Z,15.00
2018-07-11T19:58:28.583Z,16.10
2018-07-11T20:00:57.033Z,15.83
2018-07-11T20:03:25.400Z,15.50
2018-07-11T20:05:53.780Z,15.83
2018-07-11T20:08:22.165Z,15.20
2018-07-11T20:10:50.558Z,15.50
2018-07-11T20:13:18.907Z,15.60
2018-07-11T20:15:47.267Z,15.60
2018-07-11T20:18:15.811Z,15.38
2018-07-11T20:20:44.312Z,15.60
2018-07-11T20:23:12.837Z,15.90
2018-07-11T20:25:41.249Z,15.60
2018-07-11T20:28:09.644Z,15.25
2018-07-11T20:30:38.088Z,16.12
2018-07-11T20:33:06.529Z,15.83
2018-07-11T20:35:34.905Z,15.60
2018-07-11T20:38:03.329Z,16.35
2018-07-11T20:40:31.698Z,15.67
2018-07-11T20:43:00.070Z,16.17
2018-07-11T20:45:28.483Z,15.77
2018-07-11T20:47:56.949Z,16.60
2018-07-11T20:50:25.697Z,16.30
2018-07-11T20:52:54.085Z,16.05
2018-07-11T20:55:22.747Z,15.37
2018-07-11T20:57:56.883Z,15.00
2018-07-11T21:00:36.716Z,15.60
2018-07-11T21:03:14.085Z,15.90
2018-07-11T21:06:58.150Z,14.85
2018-07-11T21:09:53.946Z,15.13
2018-07-11T21:15:47.290Z,14.77
2018-07-11T21:18:25.440Z,14.73
2018-07-11T21:20:53.823Z,14.80
2018-07-11T21:23:22.223Z,14.38
2018-07-11T21:25:50.625Z,15.25
2018-07-11T21:28:19.128Z,13.55
2018-07-11T21:30:47.536Z,13.70
2018-07-11T21:33:15.932Z,14.53
2018-07-11T21:35:44.349Z,13.97
2018-07-11T21:38:12.789Z,14.37
2018-07-11T21:40:41.218Z,13.50
2018-07-11T21:43:09.557Z,14.78
2018-07-11T21:45:37.932Z,14.20
2018-07-11T21:48:06.263Z,13.20
2018-07-11T21:50:34.648Z,12.85
2018-07-11T21:53:03.040Z,14.40
2018-07-11T21:55:31.432Z,13.62
2018-07-11T21:57:59.827Z,13.43
2018-07-11T22:00:36.068Z,13.10
2018-07-11T22:03:04.846Z,14.00
2018-07-11T22:05:34.268Z,13.08
2018-07-11T22:08:03.018Z,12.95
2018-07-11T22:10:31.536Z,13.68
2018-07-11T22:12:59.882Z,13.65
2018-07-11T22:15:28.243Z,13.40
2018-07-11T22:18:07.957Z,13.65
2018-07-11T22:20:35.210Z,12.63
2018-07-11T22:23:03.430Z,13.13
2018-07-11T22:25:30.811Z,12.58
2018-07-11T22:27:58.039Z,12.78
2018-07-11T22:30:26.232Z,14.13
2018-07-11T22:32:53.476Z,13.28
2018-07-11T22:35:20.703Z,12.80
2018-07-11T22:37:48.100Z,13.75
2018-07-11T22:40:15.305Z,14.00
2018-07-11T22:42:42.606Z,13.80
2018-07-11T22:45:09.780Z,14.50
2018-07-11T22:47:37.013Z,13.88
2018-07-11T22:50:04.537Z,14.50
2018-07-11T22:52:32.674Z,14.55
2018-07-11T22:54:59.874Z,15.10
2018-07-11T22:57:27.091Z,15.43
2018-07-11T22:59:54.315Z,15.25
2018-07-11T23:02:21.547Z,16.30
2018-07-11T23:04:48.747Z,15.80
2018-07-11T23:07:15.969Z,15.70
2018-07-11T23:09:43.163Z,17.35
2018-07-11T23:12:10.351Z,18.25
2018-07-11T23:14:37.560Z,19.10
2018-07-11T23:17:04.775Z,16.00
2018-07-11T23:19:31.993Z,17.03
2018-07-11T23:21:59.456Z,16.97
2018-07-11T23:24:26.801Z,16.35
2018-07-11T23:26:54.280Z,15.63
2018-07-11T23:29:21.717Z,16.20
2018-07-11T23:31:48.911Z,15.50
2018-07-11T23:34:16.172Z,15.40
2018-07-11T23:36:43.423Z,16.15
2018-07-11T23:39:11.536Z,16.32
2018-07-11T23:41:38.750Z,17.60
2018-07-11T23:44:06.184Z,17.00
2018-07-11T23:46:33.406Z,17.27
2018-07-11T23:49:00.645Z,16.75
2018-07-11T23:51:27.875Z,17.35
2018-07-11T23:53:55.103Z,16.70
2018-07-11T23:56:22.318Z,17.23
2018-07-11T23:58:49.516Z,16.60
